createdAt,value
2023-09-27T00:00:57.610Z,961.04
2023-09-27T00:03:57.578Z,961.1
2023-09-27T00:06:57.130Z,961.07
2023-09-27T00:09:57.351Z,961.09
2023-09-27T00:12:57.258Z,961.0
2023-09-27T00:15:56.712Z,961.07
2023-09-27T00:18:57.303Z,960.97
2023-09-27T00:21:57.269Z,961.0
2023-09-27T00:24:57.300Z,960.96
2023-09-27T00:27:57.508Z,960.87
2023-09-27T00:30:57.722Z,960.98
2023-09-27T00:33:57.190Z,960.94
2023-09-27T00:36:57.022Z,960.91
2023-09-27T00:39:57.750Z,960.87
2023-09-27T00:42:56.988Z,960.91
2023-09-27T00:45:57.045Z,960.82
2023-09-27T00:48:57.578Z,960.94
2023-09-27T00:51:57.437Z,960.84
2023-09-27T00:54:56.909Z,960.94
2023-09-27T00:57:57.675Z,960.83
2023-09-27T01:00:57.717Z,960.75
2023-09-27T01:03:56.634Z,960.86
2023-09-27T01:06:56.902Z,960.75
2023-09-27T01:09:58.320Z,960.74
2023-09-27T01:12:56.632Z,960.72
2023-09-27T01:15:57.404Z,960.75
2023-09-27T01:18:57.819Z,960.77
2023-09-27T01:21:57.633Z,960.77
2023-09-27T01:24:56.927Z,960.78
2023-09-27T01:27:57.264Z,960.89
2023-09-27T01:30:57.255Z,960.92
2023-09-27T01:33:57.173Z,960.89
2023-09-27T01:36:57.821Z,960.76
2023-09-27T01:39:57.197Z,960.88
2023-09-27T01:42:57.547Z,960.92
2023-09-27T01:45:56.862Z,961.02
2023-09-27T01:48:57.632Z,960.95
2023-09-27T01:51:57.475Z,960.91
2023-09-27T01:54:57.267Z,960.89
2023-09-27T01:57:57.723Z,960.84
2023-09-27T02:00:57.811Z,960.89
2023-09-27T02:03:57.824Z,960.96
2023-09-27T02:06:57.411Z,961.1
2023-09-27T02:09:57.510Z,961.05
2023-09-27T02:12:57.106Z,960.97
2023-09-27T02:15:57.595Z,960.95
2023-09-27T02:18:57.497Z,961.05
2023-09-27T02:21:56.909Z,961.1
2023-09-27T02:24:57.138Z,961.05
2023-09-27T02:27:56.655Z,961.14
2023-09-27T02:30:57.255Z,961.07
2023-09-27T02:33:57.456Z,961.14
2023-09-27T02:36:57.760Z,961.14
2023-09-27T02:39:57.299Z,961.13
2023-09-27T02:42:57.078Z,961.21
2023-09-27T02:45:57.734Z,961.13
2023-09-27T02:48:57.138Z,961.14
2023-09-27T02:51:57.359Z,961.14
2023-09-27T02:54:56.922Z,961.11
2023-09-27T02:57:57.546Z,961.07
2023-09-27T03:00:57.171Z,961.06
2023-09-27T03:03:57.010Z,961.13
2023-09-27T03:06:56.863Z,961.06
2023-09-27T03:09:57.941Z,961.01
2023-09-27T03:12:57.638Z,961.01
2023-09-27T03:15:57.723Z,961.1
2023-09-27T03:18:57.160Z,961.06
2023-09-27T03:21:57.770Z,961.01
2023-09-27T03:24:57.714Z,961.04
2023-09-27T03:27:57.455Z,960.97
2023-09-27T03:30:57.670Z,960.96
2023-09-27T03:33:57.029Z,960.87
2023-09-27T03:36:57.430Z,961.01
2023-09-27T03:39:57.346Z,960.9
2023-09-27T03:42:57.412Z,960.93
2023-09-27T03:45:57.679Z,960.97
2023-09-27T03:48:57.314Z,960.93
2023-09-27T03:51:57.862Z,960.93
2023-09-27T03:54:57.401Z,960.86
2023-09-27T03:57:57.398Z,960.87
2023-09-27T04:00:57.511Z,960.82
2023-09-27T04:03:57.165Z,960.78
2023-09-27T04:06:57.392Z,960.7
2023-09-27T04:09:57.222Z,960.71
2023-09-27T04:12:57.385Z,960.76
2023-09-27T04:15:57.605Z,960.69
2023-09-27T04:18:57.401Z,960.63
2023-09-27T04:21:57.328Z,960.71
2023-09-27T04:24:57.348Z,960.69
2023-09-27T04:27:57.330Z,960.7
2023-09-27T04:30:57.558Z,960.79
2023-09-27T04:33:57.898Z,960.87
2023-09-27T04:36:57.562Z,960.86
2023-09-27T04:39:57.658Z,960.89
2023-09-27T04:42:56.828Z,960.96
2023-09-27T04:45:58.091Z,961.07
2023-09-27T04:48:57.926Z,961.17
2023-09-27T04:51:57.678Z,961.2
2023-09-27T04:54:57.326Z,961.21
2023-09-27T04:57:57.972Z,961.23
2023-09-27T05:00:57.878Z,961.23
2023-09-27T05:03:57.194Z,961.34
2023-09-27T05:06:57.202Z,961.4
2023-09-27T05:09:57.295Z,961.39
2023-09-27T05:12:57.694Z,961.46
2023-09-27T05:15:58.480Z,961.49
2023-09-27T05:18:58.032Z,961.51
2023-09-27T05:21:58.032Z,961.59
2023-09-27T05:24:57.836Z,961.58
2023-09-27T05:27:57.206Z,961.66
2023-09-27T05:30:58.510Z,961.8
2023-09-27T05:33:57.908Z,961.74
2023-09-27T05:36:57.310Z,961.67
2023-09-27T05:39:57.829Z,961.57
2023-09-27T05:42:59.775Z,961.63
2023-09-27T05:45:57.836Z,961.63
2023-09-27T05:48:57.641Z,961.72
2023-09-27T05:51:57.608Z,961.8
2023-09-27T05:54:57.873Z,961.8
2023-09-27T05:57:57.423Z,961.85
2023-09-27T06:00:58.577Z,961.9
2023-09-27T06:03:57.505Z,962.05
2023-09-27T06:06:57.497Z,961.83
2023-09-27T06:09:58.275Z,961.93
2023-09-27T06:12:57.515Z,961.99
2023-09-27T06:15:57.682Z,961.98
2023-09-27T06:18:57.344Z,962.05
2023-09-27T06:21:58.543Z,961.98
2023-09-27T06:24:58.056Z,962.07
2023-09-27T06:27:57.472Z,962.02
2023-09-27T06:30:57.615Z,961.96
2023-09-27T06:33:57.642Z,961.86
2023-09-27T06:36:57.274Z,961.82
2023-09-27T06:39:57.882Z,961.87
2023-09-27T06:42:57.461Z,961.9
2023-09-27T06:45:57.799Z,961.92
2023-09-27T06:48:57.203Z,961.83
2023-09-27T06:51:56.938Z,961.83
2023-09-27T06:54:57.859Z,961.86
2023-09-27T06:57:57.430Z,961.83
2023-09-27T07:00:57.876Z,961.93
2023-09-27T07:03:58.015Z,961.9
2023-09-27T07:06:56.927Z,961.88
2023-09-27T07:09:58.188Z,961.96
2023-09-27T07:12:56.782Z,961.87
2023-09-27T07:15:58.270Z,961.87
2023-09-27T07:18:57.771Z,961.82
2023-09-27T07:21:57.740Z,961.84
2023-09-27T07:24:57.250Z,961.82
2023-09-27T07:27:57.253Z,961.76
2023-09-27T07:30:57.699Z,961.84
2023-09-27T07:33:57.156Z,961.95
2023-09-27T07:36:57.179Z,961.91
2023-09-27T07:39:57.084Z,961.83
2023-09-27T07:42:57.038Z,961.91
2023-09-27T07:45:56.944Z,961.86
2023-09-27T07:48:57.643Z,961.87
2023-09-27T07:51:57.042Z,961.83
2023-09-27T07:54:57.485Z,961.86
2023-09-27T07:57:58.039Z,961.97
2023-09-27T08:00:57.993Z,961.9
2023-09-27T08:03:57.149Z,961.91
2023-09-27T08:06:57.707Z,962.0
2023-09-27T08:10:15.315Z,962.04
2023-09-27T08:12:56.897Z,961.99
2023-09-27T08:15:57.098Z,962.13
2023-09-27T08:18:57.619Z,962.1
2023-09-27T08:21:57.564Z,962.07
2023-09-27T08:24:57.394Z,962.0
2023-09-27T08:27:57.737Z,962.01
2023-09-27T08:30:57.581Z,962.0
2023-09-27T08:33:56.933Z,962.05
2023-09-27T08:36:57.162Z,961.95
2023-09-27T08:39:57.196Z,961.91
2023-09-27T08:42:57.245Z,961.92
2023-09-27T08:45:57.426Z,961.91
2023-09-27T08:48:57.349Z,961.82
2023-09-27T08:51:57.370Z,961.83
2023-09-27T08:54:57.386Z,961.71
2023-09-27T08:57:56.979Z,961.7
2023-09-27T09:00:57.602Z,961.71
2023-09-27T09:03:57.652Z,961.61
2023-09-27T09:06:57.750Z,961.66
2023-09-27T09:09:57.189Z,961.7
2023-09-27T09:12:57.418Z,961.6
2023-09-27T09:15:57.973Z,961.61
2023-09-27T09:18:57.248Z,961.56
2023-09-27T09:21:57.237Z,961.65
2023-09-27T09:24:57.325Z,961.64
2023-09-27T09:27:57.757Z,961.59
2023-09-27T09:30:57.703Z,961.65
2023-09-27T09:33:56.655Z,961.61
2023-09-27T09:36:57.355Z,961.47
2023-09-27T09:39:57.098Z,961.43
2023-09-27T09:42:59.611Z,961.37
2023-09-27T09:45:58.082Z,961.34
2023-09-27T09:48:57.485Z,961.35
2023-09-27T09:51:57.777Z,961.32
2023-09-27T09:55:11.016Z,961.26
2023-09-27T09:57:56.914Z,961.24
2023-09-27T10:00:58.129Z,961.19
2023-09-27T10:03:58.118Z,961.17
2023-09-27T10:06:57.945Z,961.11
2023-09-27T10:09:57.322Z,961.11
2023-09-27T10:12:57.049Z,961.11
2023-09-27T10:15:57.426Z,961.12
2023-09-27T10:18:57.047Z,961.04
2023-09-27T10:21:56.979Z,960.93
2023-09-27T10:24:57.384Z,960.97
2023-09-27T10:27:56.959Z,960.85
2023-09-27T10:30:57.448Z,960.87
2023-09-27T10:33:56.868Z,960.76
2023-09-27T10:37:15.233Z,960.66
2023-09-27T10:39:57.703Z,960.63
2023-09-27T10:42:57.133Z,960.63
2023-09-27T10:45:57.417Z,960.52
2023-09-27T10:48:56.826Z,960.51
2023-09-27T10:52:06.335Z,960.51
2023-09-27T10:54:57.592Z,960.45
2023-09-27T10:57:57.677Z,960.35
2023-09-27T11:00:57.917Z,960.3
2023-09-27T11:04:17.221Z,960.27
2023-09-27T11:06:56.810Z,960.17
2023-09-27T11:09:57.884Z,960.16
2023-09-27T11:12:57.254Z,960.19
2023-09-27T11:15:57.518Z,960.09
2023-09-27T11:18:57.119Z,960.15
2023-09-27T11:21:57.896Z,959.98
2023-09-27T11:24:57.174Z,960.0
2023-09-27T11:27:57.492Z,959.93
2023-09-27T11:30:57.530Z,959.88
2023-09-27T11:33:57.720Z,959.8
2023-09-27T11:36:57.073Z,959.74
2023-09-27T11:39:58.125Z,959.78
2023-09-27T11:42:57.063Z,959.71
2023-09-27T11:45:57.934Z,959.65
2023-09-27T11:48:58.065Z,959.54
2023-09-27T11:51:58.919Z,959.62
2023-09-27T11:54:57.348Z,959.6
2023-09-27T11:57:57.826Z,959.6
2023-09-27T12:00:57.953Z,959.56
2023-09-27T12:03:57.841Z,959.51
2023-09-27T12:06:57.978Z,959.57
2023-09-27T12:09:57.385Z,959.54
2023-09-27T12:12:57.122Z,959.63
2023-09-27T12:15:56.998Z,959.64
2023-09-27T12:18:57.579Z,959.77
2023-09-27T12:21:57.054Z,959.65
2023-09-27T12:24:57.721Z,959.63
2023-09-27T12:27:57.035Z,959.63
2023-09-27T12:30:57.170Z,959.58
2023-09-27T12:33:56.918Z,959.59
2023-09-27T12:36:57.129Z,959.57
2023-09-27T12:39:57.276Z,959.52
2023-09-27T12:42:57.771Z,959.53
2023-09-27T12:45:57.216Z,959.51
2023-09-27T12:48:57.240Z,959.63
2023-09-27T12:51:56.878Z,959.58
2023-09-27T12:54:56.785Z,959.51
2023-09-27T12:57:57.662Z,959.49
2023-09-27T13:00:57.098Z,959.4
2023-09-27T13:03:57.365Z,959.47
2023-09-27T13:06:57.031Z,959.45
2023-09-27T13:09:57.596Z,959.49
2023-09-27T13:12:57.576Z,959.45
2023-09-27T13:15:57.185Z,959.45
2023-09-27T13:18:57.589Z,959.4
2023-09-27T13:21:57.149Z,959.31
2023-09-27T13:24:57.603Z,959.25
2023-09-27T13:27:57.723Z,959.28
2023-09-27T13:30:57.823Z,959.32
2023-09-27T13:34:09.523Z,959.18
2023-09-27T13:36:57.204Z,959.17
2023-09-27T13:39:57.387Z,959.13
2023-09-27T13:42:57.016Z,959.15
2023-09-27T13:45:57.428Z,959.0
2023-09-27T13:48:57.190Z,958.99
2023-09-27T13:51:57.201Z,958.92
2023-09-27T13:54:57.536Z,958.86
2023-09-27T13:57:57.130Z,958.91
2023-09-27T14:00:58.117Z,958.91
2023-09-27T14:03:56.955Z,958.91
2023-09-27T14:06:56.853Z,958.85
2023-09-27T14:09:57.630Z,958.78
2023-09-27T14:12:57.421Z,958.86
2023-09-27T14:15:57.076Z,958.78
2023-09-27T14:18:57.807Z,958.79
2023-09-27T14:21:57.534Z,958.79
2023-09-27T14:24:57.143Z,958.82
2023-09-27T14:27:57.463Z,958.85
2023-09-27T14:30:58.082Z,958.75
2023-09-27T14:33:59.195Z,958.8
2023-09-27T14:36:58.068Z,958.74
2023-09-27T14:39:58.212Z,958.72
2023-09-27T14:42:56.890Z,958.6
2023-09-27T14:45:58.022Z,958.62
2023-09-27T14:48:58.445Z,958.64
2023-09-27T14:51:57.301Z,958.48
2023-09-27T14:54:57.852Z,958.47
2023-09-27T14:57:57.840Z,958.47
2023-09-27T15:00:57.868Z,958.44
2023-09-27T15:03:57.246Z,958.32
2023-09-27T15:06:57.661Z,958.38
2023-09-27T15:09:58.067Z,958.39
2023-09-27T15:12:57.448Z,958.36
2023-09-27T15:15:57.495Z,958.36
2023-09-27T15:18:57.244Z,958.39
2023-09-27T15:21:57.721Z,958.38
2023-09-27T15:24:57.713Z,958.31
2023-09-27T15:27:57.384Z,958.45
2023-09-27T15:30:57.877Z,958.36
2023-09-27T15:33:57.497Z,958.28
2023-09-27T15:36:57.960Z,958.21
2023-09-27T15:39:58.476Z,958.25
2023-09-27T15:42:57.450Z,958.16
2023-09-27T15:45:57.591Z,958.24
2023-09-27T15:48:58.122Z,958.24
2023-09-27T15:51:58.219Z,958.22
2023-09-27T15:54:57.407Z,958.24
2023-09-27T15:57:58.358Z,958.19
2023-09-27T16:00:58.621Z,958.18
2023-09-27T16:03:57.680Z,958.18
2023-09-27T16:06:57.057Z,958.11
2023-09-27T16:09:57.644Z,958.08
2023-09-27T16:12:58.211Z,958.21
2023-09-27T16:15:58.451Z,958.18
2023-09-27T16:18:57.671Z,958.08
2023-09-27T16:21:57.770Z,958.14
2023-09-27T16:24:57.772Z,958.08
2023-09-27T16:27:57.925Z,958.02
2023-09-27T16:30:58.657Z,958.01
2023-09-27T16:33:58.195Z,958.04
2023-09-27T16:36:57.756Z,957.98
2023-09-27T16:39:58.290Z,958.04
2023-09-27T16:42:57.636Z,958.04
2023-09-27T16:45:57.938Z,958.04
2023-09-27T16:48:58.094Z,958.04
2023-09-27T16:51:58.214Z,958.09
2023-09-27T16:54:57.656Z,958.22
2023-09-27T16:57:57.927Z,958.12
2023-09-27T17:00:58.284Z,958.21
2023-09-27T17:03:57.335Z,958.09
2023-09-27T17:06:57.572Z,958.19
2023-09-27T17:09:57.445Z,958.12
2023-09-27T17:12:57.302Z,958.06
2023-09-27T17:15:57.431Z,958.18
2023-09-27T17:18:58.257Z,958.12
2023-09-27T17:21:57.850Z,958.21
2023-09-27T17:24:58.102Z,958.2
2023-09-27T17:27:57.389Z,958.2
2023-09-27T17:30:57.350Z,958.24
2023-09-27T17:33:58.488Z,958.26
2023-09-27T17:36:57.419Z,958.24
2023-09-27T17:39:58.456Z,958.24
2023-09-27T17:42:58.118Z,958.3
2023-09-27T17:45:58.571Z,958.32
2023-09-27T17:48:58.054Z,958.25
2023-09-27T17:51:57.145Z,958.26
2023-09-27T17:54:57.978Z,958.26
2023-09-27T17:57:57.818Z,958.2
2023-09-27T18:00:58.200Z,958.28
2023-09-27T18:03:58.194Z,958.25
2023-09-27T18:06:57.641Z,958.29
2023-09-27T18:09:57.987Z,958.34
2023-09-27T18:12:57.805Z,958.39
2023-09-27T18:15:57.175Z,958.39
2023-09-27T18:18:57.685Z,958.4
2023-09-27T18:21:57.940Z,958.46
2023-09-27T18:24:57.084Z,958.48
2023-09-27T18:27:57.921Z,958.51
2023-09-27T18:30:57.303Z,958.5
2023-09-27T18:33:58.138Z,958.44
2023-09-27T18:36:57.467Z,958.43
2023-09-27T18:39:57.449Z,958.47
2023-09-27T18:42:57.355Z,958.47
2023-09-27T18:45:58.089Z,958.5
2023-09-27T18:48:57.596Z,958.47
2023-09-27T18:51:57.482Z,958.58
2023-09-27T18:54:57.587Z,958.52
2023-09-27T18:57:57.303Z,958.59
2023-09-27T19:01:26.083Z,958.69
2023-09-27T19:03:58.874Z,958.65
2023-09-27T19:06:57.574Z,958.74
2023-09-27T19:09:57.851Z,958.74
2023-09-27T19:12:57.795Z,958.8
2023-09-27T19:15:57.857Z,958.71
2023-09-27T19:18:57.568Z,958.64
2023-09-27T19:21:58.048Z,958.62
2023-09-27T19:24:57.847Z,958.67
2023-09-27T19:27:57.583Z,958.74
2023-09-27T19:30:58.010Z,958.69
2023-09-27T19:33:57.370Z,958.7
2023-09-27T19:36:57.793Z,958.69
2023-09-27T19:39:57.505Z,958.59
2023-09-27T19:42:57.788Z,958.61
2023-09-27T19:45:58.063Z,958.56
2023-09-27T19:48:57.627Z,958.63
2023-09-27T19:51:57.266Z,958.59
2023-09-27T19:54:57.700Z,958.57
2023-09-27T19:57:57.875Z,958.67
2023-09-27T20:00:57.738Z,958.64
2023-09-27T20:03:57.353Z,958.57
2023-09-27T20:06:57.394Z,958.59
2023-09-27T20:09:57.996Z,958.61
2023-09-27T20:12:57.542Z,958.51
2023-09-27T20:15:57.618Z,958.57
2023-09-27T20:18:57.133Z,958.46
2023-09-27T20:21:57.163Z,958.47
2023-09-27T20:24:57.976Z,958.46
2023-09-27T20:27:57.826Z,958.4
2023-09-27T20:30:57.873Z,958.44
2023-09-27T20:33:57.384Z,958.43
2023-09-27T20:36:57.262Z,958.44
2023-09-27T20:39:57.547Z,958.43
2023-09-27T20:42:57.946Z,958.52
2023-09-27T20:45:57.756Z,958.48
2023-09-27T20:48:57.467Z,958.48
2023-09-27T20:51:57.861Z,958.43
2023-09-27T20:54:57.661Z,958.52
2023-09-27T20:57:57.839Z,958.41
2023-09-27T21:00:59.317Z,958.41
2023-09-27T21:03:57.825Z,958.49
2023-09-27T21:06:58.231Z,958.47
2023-09-27T21:09:58.150Z,958.52
2023-09-27T21:12:58.372Z,958.47
2023-09-27T21:15:58.156Z,958.39
2023-09-27T21:18:57.767Z,958.41
2023-09-27T21:21:57.924Z,958.32
2023-09-27T21:24:59.672Z,958.27
2023-09-27T21:27:58.046Z,958.27
2023-09-27T21:30:57.991Z,958.32
2023-09-27T21:33:57.829Z,958.39
2023-09-27T21:36:57.806Z,958.34
2023-09-27T21:39:57.708Z,958.25
2023-09-27T21:42:57.920Z,958.27
2023-09-27T21:45:58.551Z,958.27
2023-09-27T21:48:57.263Z,958.09
2023-09-27T21:51:57.605Z,958.24
2023-09-27T21:54:56.979Z,958.18
2023-09-27T21:57:57.223Z,958.24
2023-09-27T22:00:58.373Z,958.21
2023-09-27T22:03:58.298Z,958.21
2023-09-27T22:06:57.409Z,958.26
2023-09-27T22:09:57.586Z,958.26
2023-09-27T22:12:57.919Z,958.19
2023-09-27T22:15:58.441Z,958.1
2023-09-27T22:18:56.805Z,958.19
2023-09-27T22:21:57.167Z,958.23
2023-09-27T22:24:58.075Z,958.11
2023-09-27T22:27:57.710Z,958.1
2023-09-27T22:30:58.065Z,958.2
2023-09-27T22:33:56.749Z,958.23
2023-09-27T22:36:57.919Z,958.11
2023-09-27T22:40:12.643Z,958.16
2023-09-27T22:42:56.696Z,958.18
2023-09-27T22:45:57.244Z,958.05
2023-09-27T22:48:56.966Z,958.09
2023-09-27T22:51:57.865Z,958.07
2023-09-27T22:54:56.783Z,958.07
2023-09-27T22:57:57.625Z,957.99
2023-09-27T23:00:57.954Z,958.01
2023-09-27T23:03:57.627Z,957.98
2023-09-27T23:06:57.556Z,957.95
2023-09-27T23:09:58.188Z,957.98
2023-09-27T23:12:57.164Z,957.99
2023-09-27T23:15:57.690Z,958.02
2023-09-27T23:18:57.593Z,957.91
2023-09-27T23:21:57.312Z,957.95
2023-09-27T23:24:57.039Z,957.94
2023-09-27T23:27:57.505Z,957.93
2023-09-27T23:31:15.071Z,957.95
2023-09-27T23:33:58.229Z,957.93
2023-09-27T23:36:57.662Z,958.08
2023-09-27T23:39:58.166Z,958.02
2023-09-27T23:42:57.484Z,958.17
2023-09-27T23:45:57.666Z,958.06
2023-09-27T23:48:57.395Z,958.1
2023-09-27T23:51:57.615Z,958.08
2023-09-27T23:54:57.556Z,958.12
2023-09-27T23:57:56.950Z,958.11
